sensor_id;sensor_type;location;lat;lon;timestamp;pressure;altitude;pressure_sealevel;temperature;humidity
64354;BME280;50681;53.334;-6.536;2023-04-29T00:01:29;101099.91;;;15.88;100.00
64354;BME280;50681;53.334;-6.536;2023-04-29T00:03:55;101089.97;;;15.92;100.00
64354;BME280;50681;53.334;-6.536;2023-04-29T00:06:21;101096.13;;;16.07;100.00
64354;BME280;50681;53.334;-6.536;2023-04-29T00:08:47;101095.13;;;16.34;100.00
64354;BME280;50681;53.334;-6.536;2023-04-29T00:11:12;101077.00;;;15.66;100.00
64354;BME280;50681;53.334;-6.536;2023-04-29T00:13:38;101087.38;;;15.64;100.00
64354;BME280;50681;53.334;-6.536;2023-04-29T00:16:05;101101.81;;;15.87;100.00
64354;BME280;50681;53.334;-6.536;2023-04-29T00:18:30;101094.81;;;15.50;100.00
64354;BME280;50681;53.334;-6.536;2023-04-29T00:20:56;101092.97;;;15.36;100.00
64354;BME280;50681;53.334;-6.536;2023-04-29T00:23:22;101095.97;;;15.35;100.00
64354;BME280;50681;53.334;-6.536;2023-04-29T00:25:47;101095.91;;;15.26;100.00
64354;BME280;50681;53.334;-6.536;2023-04-29T00:28:12;101081.16;;;15.04;100.00
64354;BME280;50681;53.334;-6.536;2023-04-29T00:30:38;101092.34;;;15.03;100.00
64354;BME280;50681;53.334;-6.536;2023-04-29T00:33:03;101090.34;;;14.94;100.00
64354;BME280;50681;53.334;-6.536;2023-04-29T00:35:29;101099.44;;;14.90;100.00
64354;BME280;50681;53.334;-6.536;2023-04-29T00:37:54;101109.81;;;14.88;100.00
64354;BME280;50681;53.334;-6.536;2023-04-29T00:40:20;101105.09;;;14.79;100.00
64354;BME280;50681;53.334;-6.536;2023-04-29T00:43:00;101121.69;;;14.92;100.00
64354;BME280;50681;53.334;-6.536;2023-04-29T00:45:25;101112.41;;;14.65;100.00
64354;BME280;50681;53.334;-6.536;2023-04-29T00:47:51;101111.09;;;14.48;100.00
64354;BME280;50681;53.334;-6.536;2023-04-29T00:50:17;101099.22;;;14.44;100.00
64354;BME280;50681;53.334;-6.536;2023-04-29T00:52:43;101099.03;;;14.54;100.00
64354;BME280;50681;53.334;-6.536;2023-04-29T00:55:10;101112.91;;;14.53;100.00
64354;BME280;50681;53.334;-6.536;2023-04-29T00:57:37;101107.47;;;14.39;100.00
64354;BME280;50681;53.334;-6.536;2023-04-29T01:00:04;101111.72;;;14.45;100.00
64354;BME280;50681;53.334;-6.536;2023-04-29T01:02:30;101099.22;;;14.30;100.00
64354;BME280;50681;53.334;-6.536;2023-04-29T01:04:59;101104.44;;;14.40;100.00
64354;BME280;50681;53.334;-6.536;2023-04-29T01:07:33;101103.25;;;14.33;100.00
64354;BME280;50681;53.334;-6.536;2023-04-29T01:10:25;101101.84;;;14.35;100.00
64354;BME280;50681;53.334;-6.536;2023-04-29T01:18:14;101105.53;;;14.11;100.00
64354;BME280;50681;53.334;-6.536;2023-04-29T01:20:43;101102.22;;;14.01;100.00
64354;BME280;50681;53.334;-6.536;2023-04-29T01:23:09;101098.69;;;13.67;100.00
64354;BME280;50681;53.334;-6.536;2023-04-29T01:25:35;101108.22;;;13.64;100.00
64354;BME280;50681;53.334;-6.536;2023-04-29T01:30:55;101100.88;;;13.98;100.00
64354;BME280;50681;53.334;-6.536;2023-04-29T01:34:10;101101.19;;;13.96;100.00
64354;BME280;50681;53.334;-6.536;2023-04-29T01:39:32;101103.91;;;13.96;100.00
64354;BME280;50681;53.334;-6.536;2023-04-29T01:42:11;101103.31;;;13.66;100.00
64354;BME280;50681;53.334;-6.536;2023-04-29T01:44:40;101102.13;;;13.73;100.00
64354;BME280;50681;53.334;-6.536;2023-04-29T01:47:09;101089.31;;;13.59;100.00
64354;BME280;50681;53.334;-6.536;2023-04-29T01:49:37;101098.66;;;13.53;100.00
64354;BME280;50681;53.334;-6.536;2023-04-29T01:52:04;101106.03;;;13.47;100.00
64354;BME280;50681;53.334;-6.536;2023-04-29T01:54:29;101100.97;;;13.41;100.00
64354;BME280;50681;53.334;-6.536;2023-04-29T01:56:56;101113.59;;;13.70;100.00
64354;BME280;50681;53.334;-6.536;2023-04-29T01:59:22;101113.00;;;13.34;100.00
64354;BME280;50681;53.334;-6.536;2023-04-29T02:01:48;101101.50;;;13.23;100.00
64354;BME280;50681;53.334;-6.536;2023-04-29T02:04:13;101119.22;;;13.35;100.00
64354;BME280;50681;53.334;-6.536;2023-04-29T02:06:39;101101.22;;;13.25;100.00
64354;BME280;50681;53.334;-6.536;2023-04-29T02:09:04;101105.84;;;13.25;100.00
64354;BME280;50681;53.334;-6.536;2023-04-29T02:11:30;101097.53;;;13.16;100.00
64354;BME280;50681;53.334;-6.536;2023-04-29T02:13:55;101109.41;;;13.20;100.00
64354;BME280;50681;53.334;-6.536;2023-04-29T02:16:22;101105.91;;;13.19;100.00
64354;BME280;50681;53.334;-6.536;2023-04-29T02:18:47;101110.44;;;13.24;100.00
64354;BME280;50681;53.334;-6.536;2023-04-29T02:21:12;101101.78;;;13.22;100.00
64354;BME280;50681;53.334;-6.536;2023-04-29T02:23:38;101098.06;;;12.99;100.00
64354;BME280;50681;53.334;-6.536;2023-04-29T02:26:03;101110.13;;;13.06;100.00
64354;BME280;50681;53.334;-6.536;2023-04-29T02:28:34;101096.69;;;13.20;100.00
64354;BME280;50681;53.334;-6.536;2023-04-29T02:30:59;101086.03;;;13.24;100.00
64354;BME280;50681;53.334;-6.536;2023-04-29T02:33:25;101099.94;;;13.36;100.00
64354;BME280;50681;53.334;-6.536;2023-04-29T02:35:50;101098.22;;;13.46;100.00
64354;BME280;50681;53.334;-6.536;2023-04-29T02:38:16;101090.13;;;13.41;100.00
64354;BME280;50681;53.334;-6.536;2023-04-29T02:40:42;101108.00;;;13.61;100.00
64354;BME280;50681;53.334;-6.536;2023-04-29T02:43:08;101104.66;;;13.50;100.00
64354;BME280;50681;53.334;-6.536;2023-04-29T02:45:34;101109.34;;;13.63;100.00
64354;BME280;50681;53.334;-6.536;2023-04-29T02:48:00;101106.03;;;13.66;100.00
64354;BME280;50681;53.334;-6.536;2023-04-29T02:50:25;101118.84;;;13.80;100.00
64354;BME280;50681;53.334;-6.536;2023-04-29T02:52:51;101111.81;;;13.79;100.00
64354;BME280;50681;53.334;-6.536;2023-04-29T02:55:16;101125.47;;;13.88;100.00
64354;BME280;50681;53.334;-6.536;2023-04-29T02:57:42;101115.34;;;13.93;100.00
64354;BME280;50681;53.334;-6.536;2023-04-29T03:00:08;101115.63;;;13.78;100.00
64354;BME280;50681;53.334;-6.536;2023-04-29T03:02:37;101109.00;;;13.84;100.00
64354;BME280;50681;53.334;-6.536;2023-04-29T03:05:03;101104.75;;;13.78;100.00
64354;BME280;50681;53.334;-6.536;2023-04-29T03:07:30;101110.06;;;14.16;100.00
64354;BME280;50681;53.334;-6.536;2023-04-29T03:09:55;101115.00;;;14.28;100.00
64354;BME280;50681;53.334;-6.536;2023-04-29T03:12:21;101117.34;;;14.35;100.00
64354;BME280;50681;53.334;-6.536;2023-04-29T03:14:46;101123.94;;;14.01;100.00
64354;BME280;50681;53.334;-6.536;2023-04-29T03:17:12;101119.53;;;14.19;100.00
64354;BME280;50681;53.334;-6.536;2023-04-29T03:19:37;101123.88;;;14.34;100.00
64354;BME280;50681;53.334;-6.536;2023-04-29T03:22:03;101120.34;;;14.33;100.00
64354;BME280;50681;53.334;-6.536;2023-04-29T03:24:28;101116.00;;;14.32;100.00
64354;BME280;50681;53.334;-6.536;2023-04-29T03:26:54;101119.75;;;14.36;100.00
64354;BME280;50681;53.334;-6.536;2023-04-29T03:29:19;101130.22;;;14.43;100.00
64354;BME280;50681;53.334;-6.536;2023-04-29T03:31:45;101130.41;;;14.47;100.00
64354;BME280;50681;53.334;-6.536;2023-04-29T03:34:11;101135.06;;;14.46;100.00
64354;BME280;50681;53.334;-6.536;2023-04-29T03:36:38;101118.34;;;14.39;100.00
64354;BME280;50681;53.334;-6.536;2023-04-29T03:39:04;101128.22;;;14.35;100.00
64354;BME280;50681;53.334;-6.536;2023-04-29T03:41:29;101124.16;;;14.32;100.00
64354;BME280;50681;53.334;-6.536;2023-04-29T03:43:55;101113.09;;;14.29;100.00
64354;BME280;50681;53.334;-6.536;2023-04-29T03:46:27;101136.34;;;14.35;100.00
64354;BME280;50681;53.334;-6.536;2023-04-29T03:48:53;101130.19;;;14.15;100.00
64354;BME280;50681;53.334;-6.536;2023-04-29T03:51:21;101132.31;;;14.18;100.00
64354;BME280;50681;53.334;-6.536;2023-04-29T03:53:47;101123.16;;;14.14;100.00
64354;BME280;50681;53.334;-6.536;2023-04-29T03:56:12;101121.94;;;14.20;100.00
64354;BME280;50681;53.334;-6.536;2023-04-29T03:58:38;101127.56;;;14.24;100.00
64354;BME280;50681;53.334;-6.536;2023-04-29T04:01:03;101141.38;;;14.28;100.00
64354;BME280;50681;53.334;-6.536;2023-04-29T04:03:29;101123.38;;;14.32;100.00
64354;BME280;50681;53.334;-6.536;2023-04-29T04:05:54;101140.91;;;14.53;100.00
64354;BME280;50681;53.334;-6.536;2023-04-29T04:08:20;101135.06;;;14.46;100.00
64354;BME280;50681;53.334;-6.536;2023-04-29T04:10:45;101134.03;;;14.28;100.00
64354;BME280;50681;53.334;-6.536;2023-04-29T04:13:10;101138.44;;;14.24;100.00
64354;BME280;50681;53.334;-6.536;2023-04-29T04:15:36;101125.59;;;14.30;100.00
64354;BME280;50681;53.334;-6.536;2023-04-29T04:18:01;101126.19;;;14.26;100.00
64354;BME280;50681;53.334;-6.536;2023-04-29T04:20:27;101121.66;;;14.36;100.00
64354;BME280;50681;53.334;-6.536;2023-04-29T04:22:52;101137.19;;;14.49;100.00
64354;BME280;50681;53.334;-6.536;2023-04-29T04:25:19;101131.63;;;14.68;100.00
64354;BME280;50681;53.334;-6.536;2023-04-29T04:27:44;101120.56;;;14.65;100.00
64354;BME280;50681;53.334;-6.536;2023-04-29T04:30:10;101126.00;;;14.65;100.00
64354;BME280;50681;53.334;-6.536;2023-04-29T04:32:36;101129.16;;;14.72;100.00
64354;BME280;50681;53.334;-6.536;2023-04-29T04:35:03;101141.59;;;14.87;100.00
64354;BME280;50681;53.334;-6.536;2023-04-29T04:37:29;101143.53;;;14.87;100.00
64354;BME280;50681;53.334;-6.536;2023-04-29T04:39:54;101141.53;;;14.78;100.00
64354;BME280;50681;53.334;-6.536;2023-04-29T04:42:21;101137.59;;;14.84;100.00
64354;BME280;50681;53.334;-6.536;2023-04-29T04:44:46;101142.50;;;14.68;100.00
64354;BME280;50681;53.334;-6.536;2023-04-29T04:47:12;101127.34;;;14.81;100.00
64354;BME280;50681;53.334;-6.536;2023-04-29T04:49:37;101145.53;;;14.67;100.00
64354;BME280;50681;53.334;-6.536;2023-04-29T04:52:03;101138.50;;;14.80;100.00
64354;BME280;50681;53.334;-6.536;2023-04-29T04:54:28;101145.53;;;14.67;100.00
64354;BME280;50681;53.334;-6.536;2023-04-29T04:56:54;101159.81;;;14.59;100.00
64354;BME280;50681;53.334;-6.536;2023-04-29T04:59:19;101158.63;;;14.65;100.00
64354;BME280;50681;53.334;-6.536;2023-04-29T05:01:45;101151.66;;;14.59;100.00
64354;BME280;50681;53.334;-6.536;2023-04-29T05:04:10;101164.44;;;14.44;100.00
64354;BME280;50681;53.334;-6.536;2023-04-29T05:06:35;101163.66;;;14.58;100.00
64354;BME280;50681;53.334;-6.536;2023-04-29T05:09:01;101170.88;;;14.62;100.00
64354;BME280;50681;53.334;-6.536;2023-04-29T05:11:27;101159.59;;;14.55;100.00
64354;BME280;50681;53.334;-6.536;2023-04-29T05:13:53;101156.19;;;14.63;100.00
64354;BME280;50681;53.334;-6.536;2023-04-29T05:16:18;101153.97;;;14.65;100.00
64354;BME280;50681;53.334;-6.536;2023-04-29T05:18:44;101157.63;;;14.89;100.00
64354;BME280;50681;53.334;-6.536;2023-04-29T05:21:11;101161.94;;;15.04;100.00
64354;BME280;50681;53.334;-6.536;2023-04-29T05:23:36;101161.03;;;15.08;100.00
64354;BME280;50681;53.334;-6.536;2023-04-29T05:26:02;101164.44;;;15.14;100.00
64354;BME280;50681;53.334;-6.536;2023-04-29T05:28:28;101166.38;;;14.72;100.00
64354;BME280;50681;53.334;-6.536;2023-04-29T05:30:53;101180.38;;;14.93;100.00
64354;BME280;50681;53.334;-6.536;2023-04-29T05:33:19;101176.56;;;14.94;100.00
64354;BME280;50681;53.334;-6.536;2023-04-29T05:35:45;101181.47;;;15.06;100.00
64354;BME280;50681;53.334;-6.536;2023-04-29T05:38:10;101178.19;;;14.95;100.00
64354;BME280;50681;53.334;-6.536;2023-04-29T05:40:36;101175.13;;;14.96;100.00
64354;BME280;50681;53.334;-6.536;2023-04-29T05:43:02;101172.75;;;14.95;100.00
64354;BME280;50681;53.334;-6.536;2023-04-29T05:45:27;101171.91;;;14.94;100.00
64354;BME280;50681;53.334;-6.536;2023-04-29T05:47:53;101180.09;;;14.80;100.00
64354;BME280;50681;53.334;-6.536;2023-04-29T05:50:18;101175.34;;;14.86;100.00
64354;BME280;50681;53.334;-6.536;2023-04-29T05:52:44;101190.81;;;15.27;100.00
64354;BME280;50681;53.334;-6.536;2023-04-29T05:55:09;101175.56;;;14.90;100.00
64354;BME280;50681;53.334;-6.536;2023-04-29T05:57:35;101178.84;;;15.14;100.00
64354;BME280;50681;53.334;-6.536;2023-04-29T06:00:00;101177.97;;;15.05;100.00
64354;BME280;50681;53.334;-6.536;2023-04-29T06:02:26;101184.63;;;14.99;100.00
64354;BME280;50681;53.334;-6.536;2023-04-29T06:04:51;101170.41;;;15.53;100.00
64354;BME280;50681;53.334;-6.536;2023-04-29T06:07:17;101178.81;;;15.65;100.00
64354;BME280;50681;53.334;-6.536;2023-04-29T06:09:43;101190.97;;;15.82;100.00
64354;BME280;50681;53.334;-6.536;2023-04-29T06:12:09;101190.47;;;15.80;100.00
64354;BME280;50681;53.334;-6.536;2023-04-29T06:14:34;101183.78;;;15.86;100.00
64354;BME280;50681;53.334;-6.536;2023-04-29T06:16:59;101195.25;;;15.97;100.00
64354;BME280;50681;53.334;-6.536;2023-04-29T06:19:26;101195.59;;;16.27;100.00
64354;BME280;50681;53.334;-6.536;2023-04-29T06:21:51;101186.84;;;16.39;100.00
64354;BME280;50681;53.334;-6.536;2023-04-29T06:24:17;101182.84;;;16.45;100.00
64354;BME280;50681;53.334;-6.536;2023-04-29T06:26:42;101199.06;;;16.50;100.00
64354;BME280;50681;53.334;-6.536;2023-04-29T06:29:07;101196.00;;;16.43;100.00
64354;BME280;50681;53.334;-6.536;2023-04-29T06:31:33;101190.59;;;16.52;100.00
64354;BME280;50681;53.334;-6.536;2023-04-29T06:34:00;101198.09;;;16.86;100.00
64354;BME280;50681;53.334;-6.536;2023-04-29T06:36:26;101200.66;;;16.83;100.00
64354;BME280;50681;53.334;-6.536;2023-04-29T06:38:52;101213.13;;;17.07;100.00
64354;BME280;50681;53.334;-6.536;2023-04-29T06:41:17;101202.84;;;17.03;100.00
64354;BME280;50681;53.334;-6.536;2023-04-29T06:43:43;101215.22;;;17.10;100.00
64354;BME280;50681;53.334;-6.536;2023-04-29T06:46:09;101208.78;;;17.14;100.00
64354;BME280;50681;53.334;-6.536;2023-04-29T06:48:35;101218.16;;;17.40;100.00
64354;BME280;50681;53.334;-6.536;2023-04-29T06:51:00;101209.97;;;17.48;100.00
64354;BME280;50681;53.334;-6.536;2023-04-29T06:53:26;101209.47;;;17.29;100.00
64354;BME280;50681;53.334;-6.536;2023-04-29T06:55:51;101204.84;;;17.56;100.00
64354;BME280;50681;53.334;-6.536;2023-04-29T06:58:17;101220.28;;;17.78;100.00
64354;BME280;50681;53.334;-6.536;2023-04-29T07:00:44;101216.38;;;17.88;100.00
64354;BME280;50681;53.334;-6.536;2023-04-29T07:03:10;101220.56;;;18.12;100.00
64354;BME280;50681;53.334;-6.536;2023-04-29T07:05:36;101222.22;;;18.04;100.00
64354;BME280;50681;53.334;-6.536;2023-04-29T07:08:05;101235.00;;;18.39;100.00
64354;BME280;50681;53.334;-6.536;2023-04-29T07:10:30;101219.56;;;18.34;100.00
64354;BME280;50681;53.334;-6.536;2023-04-29T07:12:56;101232.63;;;18.67;100.00
64354;BME280;50681;53.334;-6.536;2023-04-29T07:15:21;101228.25;;;18.36;100.00
64354;BME280;50681;53.334;-6.536;2023-04-29T07:17:47;101223.78;;;17.96;100.00
64354;BME280;50681;53.334;-6.536;2023-04-29T07:20:13;101241.13;;;18.27;100.00
64354;BME280;50681;53.334;-6.536;2023-04-29T07:22:38;101222.63;;;18.32;100.00
64354;BME280;50681;53.334;-6.536;2023-04-29T07:25:05;101237.41;;;18.40;100.00
64354;BME280;50681;53.334;-6.536;2023-04-29T07:27:33;101238.56;;;18.78;100.00
64354;BME280;50681;53.334;-6.536;2023-04-29T07:30:03;101245.44;;;18.36;100.00
64354;BME280;50681;53.334;-6.536;2023-04-29T07:32:29;101244.28;;;18.55;100.00
64354;BME280;50681;53.334;-6.536;2023-04-29T07:34:58;101249.09;;;19.06;100.00
64354;BME280;50681;53.334;-6.536;2023-04-29T07:37:24;101242.41;;;19.16;100.00
64354;BME280;50681;53.334;-6.536;2023-04-29T07:39:50;101252.16;;;19.56;100.00
64354;BME280;50681;53.334;-6.536;2023-04-29T07:42:15;101241.78;;;19.40;100.00
64354;BME280;50681;53.334;-6.536;2023-04-29T07:44:41;101249.53;;;19.38;100.00
64354;BME280;50681;53.334;-6.536;2023-04-29T07:47:06;101251.97;;;19.61;100.00
64354;BME280;50681;53.334;-6.536;2023-04-29T07:49:32;101232.72;;;19.48;100.00
64354;BME280;50681;53.334;-6.536;2023-04-29T07:51:57;101232.69;;;19.27;100.00
64354;BME280;50681;53.334;-6.536;2023-04-29T07:54:23;101251.75;;;19.15;100.00
64354;BME280;50681;53.334;-6.536;2023-04-29T07:56:48;101244.31;;;18.85;100.00
64354;BME280;50681;53.334;-6.536;2023-04-29T07:59:14;101243.31;;;18.90;100.00
64354;BME280;50681;53.334;-6.536;2023-04-29T08:01:40;101262.34;;;18.86;100.00
64354;BME280;50681;53.334;-6.536;2023-04-29T08:04:06;101260.38;;;18.95;100.00
64354;BME280;50681;53.334;-6.536;2023-04-29T08:06:32;101249.25;;;18.92;100.00
64354;BME280;50681;53.334;-6.536;2023-04-29T08:08:58;101242.34;;;18.94;100.00
64354;BME280;50681;53.334;-6.536;2023-04-29T08:11:23;101243.97;;;18.87;100.00
64354;BME280;50681;53.334;-6.536;2023-04-29T08:13:55;101255.69;;;19.05;100.00
64354;BME280;50681;53.334;-6.536;2023-04-29T08:16:22;101243.66;;;18.88;100.00
64354;BME280;50681;53.334;-6.536;2023-04-29T08:18:50;101240.59;;;18.99;100.00
64354;BME280;50681;53.334;-6.536;2023-04-29T08:21:15;101245.59;;;19.27;100.00
64354;BME280;50681;53.334;-6.536;2023-04-29T08:23:41;101254.19;;;19.37;100.00
64354;BME280;50681;53.334;-6.536;2023-04-29T08:26:09;101248.88;;;19.62;100.00
64354;BME280;50681;53.334;-6.536;2023-04-29T08:28:34;101244.47;;;19.70;100.00
64354;BME280;50681;53.334;-6.536;2023-04-29T08:30:59;101249.66;;;19.84;100.00
64354;BME280;50681;53.334;-6.536;2023-04-29T08:33:25;101260.13;;;19.91;100.00
64354;BME280;50681;53.334;-6.536;2023-04-29T08:35:57;101236.78;;;20.06;100.00
64354;BME280;50681;53.334;-6.536;2023-04-29T08:38:24;101248.59;;;20.19;100.00
64354;BME280;50681;53.334;-6.536;2023-04-29T08:40:50;101254.06;;;20.19;100.00
64354;BME280;50681;53.334;-6.536;2023-04-29T08:46:37;101250.06;;;20.16;100.00
64354;BME280;50681;53.334;-6.536;2023-04-29T08:49:03;101241.13;;;20.07;100.00
64354;BME280;50681;53.334;-6.536;2023-04-29T08:51:29;101246.25;;;20.54;100.00
64354;BME280;50681;53.334;-6.536;2023-04-29T08:53:56;101261.00;;;20.50;100.00
64354;BME280;50681;53.334;-6.536;2023-04-29T08:56:21;101252.16;;;20.78;100.00
64354;BME280;50681;53.334;-6.536;2023-04-29T08:58:49;101261.75;;;21.21;100.00
64354;BME280;50681;53.334;-6.536;2023-04-29T09:01:19;101253.72;;;21.41;100.00
64354;BME280;50681;53.334;-6.536;2023-04-29T09:06:29;101246.00;;;22.00;100.00
64354;BME280;50681;53.334;-6.536;2023-04-29T09:08:58;101246.97;;;21.38;100.00
64354;BME280;50681;53.334;-6.536;2023-04-29T09:11:24;101248.94;;;21.25;100.00
64354;BME280;50681;53.334;-6.536;2023-04-29T09:14:05;101259.63;;;21.68;100.00
64354;BME280;50681;53.334;-6.536;2023-04-29T09:16:30;101253.22;;;21.64;100.00
64354;BME280;50681;53.334;-6.536;2023-04-29T09:18:56;101253.47;;;21.46;100.00
64354;BME280;50681;53.334;-6.536;2023-04-29T09:21:29;101254.81;;;21.65;100.00
64354;BME280;50681;53.334;-6.536;2023-04-29T09:23:59;101252.97;;;22.26;100.00
64354;BME280;50681;53.334;-6.536;2023-04-29T09:26:26;101265.50;;;22.39;100.00
64354;BME280;50681;53.334;-6.536;2023-04-29T09:29:09;101259.28;;;22.71;100.00
64354;BME280;50681;53.334;-6.536;2023-04-29T09:31:39;101252.75;;;22.95;100.00
64354;BME280;50681;53.334;-6.536;2023-04-29T09:34:05;101267.84;;;23.01;100.00
64354;BME280;50681;53.334;-6.536;2023-04-29T09:36:50;101272.25;;;23.22;100.00
64354;BME280;50681;53.334;-6.536;2023-04-29T09:39:20;101265.00;;;23.14;100.00
64354;BME280;50681;53.334;-6.536;2023-04-29T09:44:14;101262.28;;;22.98;100.00
64354;BME280;50681;53.334;-6.536;2023-04-29T09:46:41;101265.72;;;23.11;100.00
64354;BME280;50681;53.334;-6.536;2023-04-29T09:49:24;101258.75;;;23.17;100.00
64354;BME280;50681;53.334;-6.536;2023-04-29T09:54:21;101269.22;;;22.92;100.00
64354;BME280;50681;53.334;-6.536;2023-04-29T09:56:51;101260.56;;;22.93;100.00
64354;BME280;50681;53.334;-6.536;2023-04-29T09:59:18;101250.38;;;22.45;100.00
64354;BME280;50681;53.334;-6.536;2023-04-29T10:01:49;101268.66;;;22.54;100.00
64354;BME280;50681;53.334;-6.536;2023-04-29T10:04:16;101256.97;;;22.28;100.00
64354;BME280;50681;53.334;-6.536;2023-04-29T10:06:44;101256.66;;;22.01;100.00
64354;BME280;50681;53.334;-6.536;2023-04-29T10:09:14;101252.97;;;22.26;100.00
64354;BME280;50681;53.334;-6.536;2023-04-29T10:11:44;101267.72;;;22.78;100.00
64354;BME280;50681;53.334;-6.536;2023-04-29T10:14:15;101263.31;;;22.93;100.00
64354;BME280;50681;53.334;-6.536;2023-04-29T10:16:49;101264.94;;;22.94;100.00
64354;BME280;50681;53.334;-6.536;2023-04-29T10:19:24;101276.78;;;23.46;100.00
64354;BME280;50681;53.334;-6.536;2023-04-29T10:21:53;101266.81;;;23.42;100.00
64354;BME280;50681;53.334;-6.536;2023-04-29T10:24:20;101265.63;;;23.59;100.00
64354;BME280;50681;53.334;-6.536;2023-04-29T10:26:49;101256.63;;;23.26;100.00
64354;BME280;50681;53.334;-6.536;2023-04-29T10:29:16;101274.22;;;23.38;100.00
64354;BME280;50681;53.334;-6.536;2023-04-29T10:31:42;101272.72;;;23.40;100.00
64354;BME280;50681;53.334;-6.536;2023-04-29T10:34:08;101263.03;;;23.30;100.00
64354;BME280;50681;53.334;-6.536;2023-04-29T10:36:34;101268.84;;;23.45;100.00
64354;BME280;50681;53.334;-6.536;2023-04-29T10:39:02;101266.56;;;23.86;100.00
64354;BME280;50681;53.334;-6.536;2023-04-29T10:41:36;101265.97;;;23.97;100.00
64354;BME280;50681;53.334;-6.536;2023-04-29T10:44:06;101269.31;;;23.67;100.00
64354;BME280;50681;53.334;-6.536;2023-04-29T10:46:32;101274.69;;;23.79;100.00
64354;BME280;50681;53.334;-6.536;2023-04-29T10:49:03;101278.31;;;23.83;100.00
64354;BME280;50681;53.334;-6.536;2023-04-29T11:04:26;101263.75;;;24.45;100.00
64354;BME280;50681;53.334;-6.536;2023-04-29T11:06:56;101267.66;;;24.01;100.00
64354;BME280;50681;53.334;-6.536;2023-04-29T11:09:27;101263.41;;;24.27;100.00
64354;BME280;50681;53.334;-6.536;2023-04-29T11:12:03;101277.47;;;24.42;100.00
64354;BME280;50681;53.334;-6.536;2023-04-29T11:14:50;101272.88;;;24.06;100.00
64354;BME280;50681;53.334;-6.536;2023-04-29T11:17:17;101260.69;;;24.07;100.00
64354;BME280;50681;53.334;-6.536;2023-04-29T11:19:46;101269.34;;;24.06;100.00
64354;BME280;50681;53.334;-6.536;2023-04-29T11:22:23;101276.06;;;23.89;100.00
64354;BME280;50681;53.334;-6.536;2023-04-29T11:25:07;101266.72;;;23.93;100.00
64354;BME280;50681;53.334;-6.536;2023-04-29T11:27:36;101261.50;;;24.08;100.00
64354;BME280;50681;53.334;-6.536;2023-04-29T11:30:03;101261.94;;;24.33;100.00
64354;BME280;50681;53.334;-6.536;2023-04-29T11:32:34;101257.72;;;24.16;100.00
64354;BME280;50681;53.334;-6.536;2023-04-29T11:35:16;101255.78;;;24.40;100.00
64354;BME280;50681;53.334;-6.536;2023-04-29T11:37:44;101255.59;;;24.52;100.00
64354;BME280;50681;53.334;-6.536;2023-04-29T11:40:11;101252.16;;;25.09;100.00
64354;BME280;50681;53.334;-6.536;2023-04-29T11:42:45;101252.59;;;25.42;100.00
64354;BME280;50681;53.334;-6.536;2023-04-29T11:45:11;101246.84;;;25.24;100.00
64354;BME280;50681;53.334;-6.536;2023-04-29T11:47:44;101248.69;;;25.43;100.00
64354;BME280;50681;53.334;-6.536;2023-04-29T11:50:10;101235.56;;;25.67;100.00
64354;BME280;50681;53.334;-6.536;2023-04-29T11:52:38;101239.91;;;25.64;100.00
64354;BME280;50681;53.334;-6.536;2023-04-29T11:55:05;101241.75;;;25.87;100.00
64354;BME280;50681;53.334;-6.536;2023-04-29T11:57:30;101235.41;;;25.87;100.00
64354;BME280;50681;53.334;-6.536;2023-04-29T11:59:57;101224.91;;;26.03;100.00
64354;BME280;50681;53.334;-6.536;2023-04-29T12:02:28;101229.25;;;26.04;100.00
64354;BME280;50681;53.334;-6.536;2023-04-29T12:04:54;101236.25;;;25.57;100.00
64354;BME280;50681;53.334;-6.536;2023-04-29T12:07:19;101235.06;;;25.58;100.00
64354;BME280;50681;53.334;-6.536;2023-04-29T12:09:45;101223.75;;;25.39;100.00
64354;BME280;50681;53.334;-6.536;2023-04-29T12:12:12;101225.38;;;25.14;100.00
64354;BME280;50681;53.334;-6.536;2023-04-29T12:14:38;101227.94;;;25.26;100.00
64354;BME280;50681;53.334;-6.536;2023-04-29T12:17:04;101229.78;;;24.91;100.00
64354;BME280;50681;53.334;-6.536;2023-04-29T12:19:31;101227.59;;;25.31;100.00
64354;BME280;50681;53.334;-6.536;2023-04-29T12:22:01;101231.16;;;24.78;100.00
64354;BME280;50681;53.334;-6.536;2023-04-29T12:24:27;101228.47;;;24.82;100.00
64354;BME280;50681;53.334;-6.536;2023-04-29T12:26:54;101225.88;;;24.69;100.00
64354;BME280;50681;53.334;-6.536;2023-04-29T12:29:23;101228.78;;;24.76;100.00
64354;BME280;50681;53.334;-6.536;2023-04-29T12:31:48;101225.19;;;24.99;100.00
64354;BME280;50681;53.334;-6.536;2023-04-29T12:34:15;101221.78;;;25.40;100.00
64354;BME280;50681;53.334;-6.536;2023-04-29T12:36:41;101211.06;;;25.65;100.00
64354;BME280;50681;53.334;-6.536;2023-04-29T12:39:09;101224.94;;;26.07;100.00
64354;BME280;50681;53.334;-6.536;2023-04-29T12:41:36;101214.56;;;25.96;100.00
64354;BME280;50681;53.334;-6.536;2023-04-29T12:44:03;101215.91;;;26.10;100.00
64354;BME280;50681;53.334;-6.536;2023-04-29T12:46:33;101206.13;;;26.20;100.00
64354;BME280;50681;53.334;-6.536;2023-04-29T12:49:01;101217.19;;;26.20;100.00
64354;BME280;50681;53.334;-6.536;2023-04-29T12:51:27;101215.13;;;26.13;100.00
64354;BME280;50681;53.334;-6.536;2023-04-29T12:53:54;101203.00;;;26.25;100.00
64354;BME280;50681;53.334;-6.536;2023-04-29T12:56:20;101214.00;;;26.14;100.00
64354;BME280;50681;53.334;-6.536;2023-04-29T12:58:45;101218.09;;;25.93;100.00
64354;BME280;50681;53.334;-6.536;2023-04-29T13:01:11;101216.69;;;25.73;100.00
64354;BME280;50681;53.334;-6.536;2023-04-29T13:03:37;101202.47;;;25.74;100.00
64354;BME280;50681;53.334;-6.536;2023-04-29T13:06:04;101209.56;;;25.72;100.00